createdAt,value
2018-10-01T00:01:01.016Z,3.17
2018-10-01T00:06:04.326Z,2.90
2018-10-01T00:11:07.653Z,4.77
2018-10-01T00:16:11.320Z,4.17
2018-10-01T00:21:20.515Z,5.53
2018-10-01T00:26:24.020Z,3.50
2018-10-01T00:31:27.327Z,2.87
2018-10-01T00:36:31.593Z,3.37
2018-10-01T00:41:34.928Z,3.40
2018-10-01T00:46:38.217Z,2.90
2018-10-01T00:51:41.587Z,3.10
2018-10-01T00:56:44.841Z,2.77
2018-10-01T01:01:48.306Z,2.77
2018-10-01T01:06:51.666Z,2.70
2018-10-01T01:11:55.595Z,2.70
2018-10-01T01:16:58.863Z,2.92
2018-10-01T01:22:02.316Z,2.98
2018-10-01T01:27:05.652Z,3.15
2018-10-01T01:32:09.016Z,3.20
2018-10-01T01:37:12.331Z,3.10
2018-10-01T01:42:15.675Z,3.85
2018-10-01T01:47:18.951Z,2.90
2018-10-01T01:52:22.298Z,3.08
2018-10-01T01:57:25.820Z,3.30
2018-10-01T02:02:29.143Z,2.80
2018-10-01T02:07:32.471Z,3.00
2018-10-01T02:12:35.755Z,3.30
2018-10-01T02:17:39.153Z,2.95
2018-10-01T02:22:42.855Z,2.90
2018-10-01T02:27:46.996Z,3.27
2018-10-01T02:32:50.258Z,3.10
2018-10-01T02:37:53.606Z,3.33
2018-10-01T02:42:56.976Z,3.20
2018-10-01T02:48:01.558Z,3.10
2018-10-01T02:53:10.292Z,3.30
2018-10-01T02:58:13.565Z,3.42
2018-10-01T03:03:16.869Z,3.27
2018-10-01T03:08:20.207Z,2.90
2018-10-01T03:13:24.153Z,2.90
2018-10-01T03:18:27.494Z,2.90
2018-10-01T03:23:30.780Z,3.20
2018-10-01T03:28:34.079Z,3.13
2018-10-01T03:33:37.391Z,3.47
2018-10-01T03:38:40.705Z,3.20
2018-10-01T03:43:44.059Z,3.98
2018-10-01T03:48:47.695Z,3.35
2018-10-01T03:53:50.980Z,3.20
2018-10-01T03:58:54.283Z,3.40
2018-10-01T04:03:57.692Z,3.30
2018-10-01T04:09:01.087Z,3.80
2018-10-01T04:14:04.249Z,4.10
2018-10-01T04:19:07.633Z,2.90
2018-10-01T04:24:10.973Z,4.20
2018-10-01T04:29:14.976Z,3.65
2018-10-01T04:34:19.167Z,4.60
2018-10-01T04:39:22.660Z,3.80
2018-10-01T04:44:25.890Z,4.50
2018-10-01T04:49:29.154Z,3.70
2018-10-01T04:54:32.565Z,3.97
2018-10-01T04:59:36.520Z,4.50
2018-10-01T05:04:46.444Z,5.08
2018-10-01T05:09:49.734Z,4.13
2018-10-01T05:14:53.167Z,4.60
2018-10-01T05:19:56.400Z,5.20
2018-10-01T05:24:59.649Z,6.05
2018-10-01T05:30:02.906Z,6.15
2018-10-01T05:35:06.301Z,5.10
2018-10-01T05:40:09.752Z,5.78
2018-10-01T05:45:13.057Z,5.78
2018-10-01T05:50:16.964Z,5.80
2018-10-01T05:55:20.283Z,6.00
2018-10-01T06:00:23.512Z,6.30
2018-10-01T06:05:26.839Z,6.53
2018-10-01T06:10:30.147Z,6.30
2018-10-01T06:15:33.528Z,6.35
2018-10-01T06:20:36.842Z,6.72
2018-10-01T06:25:40.179Z,6.80
2018-10-01T06:30:43.595Z,6.63
2018-10-01T06:35:46.908Z,7.83
2018-10-01T06:40:50.177Z,7.33
2018-10-01T06:45:53.477Z,5.20
2018-10-01T06:50:56.771Z,4.80
2018-10-01T06:56:00.059Z,4.10
2018-10-01T07:01:03.463Z,4.60
2018-10-01T07:06:06.768Z,4.17
2018-10-01T07:11:10.119Z,5.22
2018-10-01T07:16:14.522Z,6.60
2018-10-01T07:21:19.376Z,7.90
2018-10-01T07:26:23.440Z,9.50
2018-10-01T07:31:26.763Z,10.20
2018-10-01T07:36:30.045Z,8.70
2018-10-01T07:41:33.403Z,9.08
2018-10-01T07:46:37.452Z,7.70
2018-10-01T07:51:42.954Z,8.43
2018-10-01T07:56:46.221Z,8.70
2018-10-01T08:01:49.533Z,8.73
2018-10-01T08:06:52.872Z,10.00
2018-10-01T08:11:56.209Z,9.40
2018-10-01T08:16:59.524Z,9.93
2018-10-01T08:22:02.848Z,9.00
2018-10-01T08:27:06.355Z,9.30
2018-10-01T08:32:09.742Z,12.90
2018-10-01T08:37:13.016Z,9.90
2018-10-01T08:42:16.362Z,8.55
2018-10-01T08:47:19.773Z,8.90
2018-10-01T08:52:29.235Z,11.60
2018-10-01T08:57:32.527Z,13.58
2018-10-01T09:02:35.905Z,13.35
2018-10-01T09:07:39.156Z,12.30
2018-10-01T09:12:42.426Z,10.60
2018-10-01T09:17:46.523Z,9.90
2018-10-01T09:22:49.984Z,9.95
2018-10-01T09:27:53.295Z,8.37
2018-10-01T09:32:56.645Z,7.40
2018-10-01T09:38:00.219Z,9.18
2018-10-01T09:43:03.564Z,8.30
2018-10-01T09:48:07.066Z,7.72
2018-10-01T09:53:10.262Z,7.53
2018-10-01T09:58:13.623Z,7.72
2018-10-01T10:03:16.981Z,6.87
2018-10-01T10:08:20.273Z,7.00
2018-10-01T10:13:23.525Z,6.87
2018-10-01T10:18:26.811Z,6.10
2018-10-01T10:23:30.164Z,6.20
2018-10-01T10:28:33.489Z,6.05
2018-10-01T10:33:42.592Z,6.10
2018-10-01T10:38:45.940Z,5.75
2018-10-01T10:43:49.331Z,5.80
2018-10-01T10:48:52.639Z,6.33
2018-10-01T10:53:55.937Z,5.80
2018-10-01T10:59:00.030Z,5.80
2018-10-01T11:04:03.314Z,5.80
2018-10-01T11:09:09.105Z,5.65
2018-10-01T11:14:13.049Z,5.20
2018-10-01T11:19:17.296Z,5.50
2018-10-01T11:24:20.456Z,4.80
2018-10-01T11:29:23.907Z,5.22
2018-10-01T11:34:27.449Z,4.63
2018-10-01T11:39:31.954Z,4.70
2018-10-01T11:44:35.620Z,5.28
2018-10-01T11:49:38.997Z,4.60
2018-10-01T11:54:42.265Z,4.40
2018-10-01T11:59:45.524Z,4.40
2018-10-01T12:04:48.751Z,4.80
2018-10-01T12:09:52.210Z,4.62
2018-10-01T12:14:58.439Z,4.28
2018-10-01T12:20:02.234Z,3.13
2018-10-01T12:25:08.476Z,2.93
2018-10-01T12:30:12.407Z,2.50
2018-10-01T12:35:15.652Z,2.40
2018-10-01T12:40:19.005Z,2.00
2018-10-01T12:45:22.420Z,2.00
2018-10-01T12:50:25.696Z,1.90
2018-10-01T12:55:28.967Z,2.00
2018-10-01T13:00:32.248Z,2.00
2018-10-01T13:05:35.557Z,2.80
2018-10-01T13:10:38.813Z,1.33
2018-10-01T13:15:42.109Z,1.70
2018-10-01T13:20:45.414Z,1.50
2018-10-01T13:25:48.796Z,2.00
2018-10-01T13:30:52.041Z,1.60
2018-10-01T13:35:55.354Z,1.87
2018-10-01T13:40:58.675Z,1.50
2018-10-01T13:46:01.928Z,1.40
2018-10-01T13:51:05.244Z,1.40
2018-10-01T13:56:08.559Z,1.70
2018-10-01T14:01:11.823Z,1.60
2018-10-01T14:06:15.205Z,1.60
2018-10-01T14:11:18.430Z,1.80
2018-10-01T14:16:21.742Z,1.65
2018-10-01T14:21:24.964Z,1.60
2018-10-01T14:26:28.208Z,1.70
2018-10-01T14:31:31.515Z,3.30
2018-10-01T14:36:34.813Z,1.60
2018-10-01T14:41:38.106Z,1.80
2018-10-01T14:46:41.439Z,1.10
2018-10-01T14:51:44.717Z,1.20
2018-10-01T14:56:47.986Z,1.00
2018-10-01T15:01:51.240Z,1.10
2018-10-01T15:06:54.581Z,1.20
2018-10-01T15:11:57.888Z,1.10
2018-10-01T15:17:01.973Z,1.40
2018-10-01T15:22:05.223Z,1.37
2018-10-01T15:27:08.533Z,1.40
2018-10-01T15:32:11.813Z,1.30
2018-10-01T15:37:16.041Z,1.60
2018-10-01T15:42:19.324Z,1.60
2018-10-01T15:47:22.571Z,1.47
2018-10-01T15:52:26.660Z,1.60
2018-10-01T15:57:29.901Z,1.70
2018-10-01T16:02:33.713Z,1.62
2018-10-01T16:07:37.055Z,1.60
2018-10-01T16:12:40.354Z,1.80
2018-10-01T16:17:43.631Z,1.80
2018-10-01T16:22:46.976Z,1.80
2018-10-01T16:27:50.308Z,1.80
2018-10-01T16:32:53.564Z,1.40
2018-10-01T16:37:56.825Z,1.75
2018-10-01T16:43:00.542Z,1.50
2018-10-01T16:48:03.916Z,2.20
2018-10-01T16:53:07.364Z,2.00
2018-10-01T16:58:13.226Z,1.30
2018-10-01T17:03:16.598Z,1.40
2018-10-01T17:08:19.841Z,1.60
2018-10-01T17:13:23.860Z,1.75
2018-10-01T17:18:27.219Z,1.50
2018-10-01T17:23:30.713Z,1.80
2018-10-01T17:28:37.079Z,1.40
2018-10-01T17:33:40.392Z,1.80
2018-10-01T17:38:44.041Z,2.10
2018-10-01T17:43:47.331Z,1.70
2018-10-01T17:49:37.415Z,2.33
2018-10-01T17:54:41.787Z,1.80
2018-10-01T17:59:45.927Z,2.05
2018-10-01T18:04:59.933Z,2.40
2018-10-01T18:10:08.085Z,2.00
2018-10-01T18:16:21.743Z,2.40
2018-10-01T18:21:29.913Z,2.25
2018-10-01T18:26:33.367Z,2.20
2018-10-01T18:31:36.680Z,2.10
2018-10-01T18:37:06.330Z,2.00
2018-10-01T18:42:18.957Z,2.45
2018-10-01T18:47:29.082Z,1.72
2018-10-01T18:52:35.585Z,1.70
2018-10-01T19:03:12.296Z,2.00
2018-10-01T19:08:17.610Z,2.00
2018-10-01T19:13:24.202Z,2.00
2018-10-01T19:18:27.600Z,2.33
2018-10-01T19:23:35.001Z,2.10
2018-10-01T19:28:38.624Z,2.20
2018-10-01T19:33:41.971Z,2.08
2018-10-01T19:38:45.278Z,2.30
2018-10-01T19:43:57.368Z,3.10
2018-10-01T19:49:13.487Z,2.58
2018-10-01T19:54:18.326Z,2.20
2018-10-01T19:59:26.541Z,1.90
2018-10-01T20:04:36.846Z,2.55
2018-10-01T20:09:43.104Z,2.50
2018-10-01T20:14:46.422Z,1.70
2018-10-01T20:19:50.900Z,1.80
2018-10-01T20:24:55.209Z,2.50
2018-10-01T20:30:00.560Z,1.90
2018-10-01T20:35:04.048Z,1.80
2018-10-01T20:40:07.885Z,2.12
2018-10-01T20:45:11.256Z,1.80
2018-10-01T20:50:15.187Z,2.10
2018-10-01T20:55:18.560Z,2.00
2018-10-01T21:00:21.855Z,2.30
2018-10-01T21:05:25.217Z,2.00
2018-10-01T21:10:28.606Z,2.50
2018-10-01T21:15:32.179Z,2.40
2018-10-01T21:20:35.501Z,2.10
2018-10-01T21:25:40.664Z,2.30
2018-10-01T21:30:44.827Z,2.40
2018-10-01T21:35:48.098Z,2.00
2018-10-01T21:40:51.378Z,2.33
2018-10-01T21:45:54.773Z,2.20
2018-10-01T21:50:58.052Z,3.00
2018-10-01T21:56:02.050Z,2.72
2018-10-01T22:01:10.749Z,3.00
2018-10-01T22:06:16.210Z,3.00
2018-10-01T22:11:19.584Z,3.00
2018-10-01T22:16:26.724Z,2.80
2018-10-01T22:21:30.105Z,2.98
2018-10-01T22:26:33.774Z,2.60
2018-10-01T22:31:37.118Z,2.72
2018-10-01T22:36:40.649Z,2.85
2018-10-01T22:41:43.979Z,2.60
2018-10-01T22:46:47.419Z,2.92
2018-10-01T22:51:50.745Z,2.80
2018-10-01T22:56:54.099Z,3.60
2018-10-01T23:01:58.134Z,2.50
2018-10-01T23:07:01.454Z,2.90
2018-10-01T23:12:04.738Z,4.00
2018-10-01T23:17:08.064Z,3.50
2018-10-01T23:22:11.330Z,2.35
2018-10-01T23:27:14.746Z,3.22
2018-10-01T23:32:18.115Z,2.60
2018-10-01T23:37:21.343Z,2.92
2018-10-01T23:42:24.664Z,2.80
2018-10-01T23:47:28.071Z,2.20
2018-10-01T23:52:31.444Z,2.90
2018-10-01T23:57:34.798Z,3.45
